• Join FlightAware (Why Join?)
  • Login
  • US Flag 
 
07:04PM EST


 

Airport Tracker/Info


-or-


 

Live Flight TrackerFlight Track Log ✈ SWA378 ✈ 14-May-2013 ✈ KSJC - KLAX

Flight Track Log - Related Links

Times and Time Zones

All times are in EDT time to prevent confusion due to time zone crossing. See the SWA378 flight status page for this flight to view local times or setup timezone preferences in your user account.

Time Position Orientation Groundspeed Altitude Reporting Facility
EDT Latitude Longitude Course Direction KTS MPH feet Rate Location/Type
11:33AM 37.3500 -121.9167 130° Southeast 144 166 1,000  Level Northern Cal TRACON
11:34AM 37.3167 -121.8667 130° Southeast 218 251 3,500 2,880 Climbing Northern Cal TRACON
11:34AM 37.2900 -121.8414 143° Southeast 255 293 5,300 3,780 Climbing Oakland Center
11:35AM 37.2336 -121.7761 137° Southeast 275 316 9,300 3,000 Climbing Oakland Center
11:36AM 37.1708 -121.7050 138° Southeast 304 350 11,500 2,580 Climbing Oakland Center
11:37AM 37.0933 -121.6147 137° Southeast 369 425 14,700 2,820 Climbing Oakland Center
11:38AM 37.0147 -121.5197 136° Southeast 402 463 17,400 2,640 Climbing Oakland Center
11:39AM 36.9247 -121.4172 138° Southeast 419 482 20,200 2,460 Climbing Oakland Center
11:40AM 36.8319 -121.3147 139° Southeast 438 504 22,500 2,460 Climbing Oakland Center
11:41AM 36.7206 -121.1853 137° Southeast 460 529 25,300 2,040 Climbing Oakland Center
11:42AM 36.6208 -121.0706 137° Southeast 476 548 26,700 1,500 Climbing Oakland Center
11:43AM 36.5158 -120.9553 139° Southeast 490 564 28,400 1,920 Climbing Oakland Center
11:44AM 36.4111 -120.8292 136° Southeast 522 601 30,700 1,260 Climbing Oakland Center
11:45AM 36.3094 -120.7158 138° Southeast 491 565 31,000 120 Climbing Oakland Center
11:46AM 36.2072 -120.6006 138° Southeast 501 577 31,000  Level Oakland Center
11:47AM 36.1078 -120.4886 138° Southeast 483 556 31,000  Level Oakland Center
11:48AM 36.0069 -120.3767 138° Southeast 479 551 31,000  Level Oakland Center
11:49AM 35.9039 -120.2619 138° Southeast 488 562 31,000  Level Oakland Center
11:50AM 35.8039 -120.1531 139° Southeast 474 545 31,000  Level Oakland Center
11:51AM 35.7019 -120.0411 138° Southeast 480 552 31,000  Level Oakland Center
11:52AM 35.5753 -119.9164 141° Southeast 481 554 31,000  Level Oakland Center
11:54AM 35.4653 -119.8222 145° Southeast 477 549 31,000  Level Oakland Center
11:55AM 35.3569 -119.7286 145° Southeast 474 545 31,000  Level Oakland Center
11:55AM 35.2931 -119.6722 144° Southeast 473 544 31,000 -120 Level Los Angeles Center
11:56AM 35.1861 -119.5817 145° Southeast 469 540 30,900  Descending Los Angeles Center
11:57AM 35.0797 -119.4903 145° Southeast 466 536 31,000  Climbing Los Angeles Center
11:58AM 34.9742 -119.3997 145° Southeast 463 533 31,000 -480 Level Los Angeles Center
11:59AM 34.8672 -119.3083 145° Southeast 467 537 30,100 -1,680 Descending Los Angeles Center
12:00PM 34.7631 -119.2197 145° Southeast 458 527 27,600 -2,580 Descending Los Angeles Center
12:01PM 34.6428 -119.1194 146° Southeast 437 503 24,800 -2,460 Descending Los Angeles Center
12:02PM 34.5494 -119.0428 146° Southeast 418 481 22,600 -2,220 Descending Los Angeles Center
12:03PM 34.4597 -118.9678 145° Southeast 394 453 20,300 -2,280 Descending Los Angeles Center
12:04PM 34.3714 -118.8942 145° Southeast 386 444 17,900 -1,860 Descending Los Angeles Center
12:05PM 34.2611 -118.8611 166° South 340 391 16,500 -1,320 Descending Los Angeles Center
12:07PM 34.1769 -118.8592 179° South 305 351 15,200 -1,500 Descending Los Angeles Center
12:08PM 34.0958 -118.8503 175° South 308 354 13,500 -1,560 Descending Los Angeles Center
12:09PM 34.0594 -118.7439 112° Southeast 327 376 12,000 -1,200 Descending Los Angeles Center
12:10PM 34.0428 -118.6478 102° East 293 337 11,100 -1,200 Descending Los Angeles Center
12:11PM 34.0267 -118.5536 102° East 268 308 9,600 -1,500 Descending Los Angeles Center
12:12PM 34.0119 -118.4675 102° East 263 303 8,100 -1,500 Descending Los Angeles Center
12:13PM 34.0156 -118.3750 87° East 267 307 6,500 -1,140 Descending Los Angeles Center
12:14PM 34.0258 -118.2892 82° East 258 297 5,800 -840 Descending Los Angeles Center
12:15PM 34.0339 -118.2192 82° East 212 244 4,800 -1,500 Descending Los Angeles Center
12:16PM 34.0089 -118.1819 129° Southeast 203 234 2,700 -1,080 Descending Los Angeles Center
12:17PM 33.9731 -118.2242 224° Southwest 179 206 2,600 -300 Descending Los Angeles Center
12:18PM 33.9644 -118.2856 260° West 163 188 2,100 -660 Descending Los Angeles Center
12:19PM 33.9597 -118.3331 263° West 145 167 1,300 -720 Descending Los Angeles Center
12:20PM 33.9556 -118.3772 264° West 134 154 700 -540 Descending Los Angeles Center
12:21PM 33.9506 -118.4267 263° West 132 152 200 -540 Descending Los Angeles Center
12:23PM 33.9425 -118.4081 270° West  Level Estimated
12:30PM 33.9425 -118.4081 228° Southwest  Level Estimated